sensor_id;sensor_type;location;lat;lon;timestamp;P1;durP1;ratioP1;P2;durP2;ratioP2
18224;SDS011;9237;48.590;8.854;2023-06-10T00:01:58;0.60;;;0.60;;
18224;SDS011;9237;48.590;8.854;2023-06-10T00:04:25;0.60;;;0.60;;
18224;SDS011;9237;48.590;8.854;2023-06-10T00:06:52;0.70;;;0.70;;
18224;SDS011;9237;48.590;8.854;2023-06-10T00:09:20;0.60;;;0.60;;
18224;SDS011;9237;48.590;8.854;2023-06-10T00:11:49;0.63;;;0.63;;
18224;SDS011;9237;48.590;8.854;2023-06-10T00:14:15;0.60;;;0.60;;
18224;SDS011;9237;48.590;8.854;2023-06-10T00:16:42;0.60;;;0.60;;
18224;SDS011;9237;48.590;8.854;2023-06-10T00:19:10;0.70;;;0.70;;
18224;SDS011;9237;48.590;8.854;2023-06-10T00:21:38;0.60;;;0.60;;
18224;SDS011;9237;48.590;8.854;2023-06-10T00:24:06;0.60;;;0.60;;
18224;SDS011;9237;48.590;8.854;2023-06-10T00:26:36;0.60;;;0.60;;
18224;SDS011;9237;48.590;8.854;2023-06-10T00:29:05;0.60;;;0.60;;
18224;SDS011;9237;48.590;8.854;2023-06-10T00:31:32;0.70;;;0.70;;
18224;SDS011;9237;48.590;8.854;2023-06-10T00:33:59;0.60;;;0.60;;
18224;SDS011;9237;48.590;8.854;2023-06-10T00:36:27;0.70;;;0.70;;
18224;SDS011;9237;48.590;8.854;2023-06-10T00:38:54;0.60;;;0.60;;
18224;SDS011;9237;48.590;8.854;2023-06-10T00:41:21;0.60;;;0.60;;
18224;SDS011;9237;48.590;8.854;2023-06-10T00:43:48;0.60;;;0.60;;
18224;SDS011;9237;48.590;8.854;2023-06-10T00:46:16;0.60;;;0.60;;
18224;SDS011;9237;48.590;8.854;2023-06-10T00:48:43;0.60;;;0.60;;
18224;SDS011;9237;48.590;8.854;2023-06-10T00:51:11;0.60;;;0.60;;
18224;SDS011;9237;48.590;8.854;2023-06-10T00:53:39;0.60;;;0.60;;
18224;SDS011;9237;48.590;8.854;2023-06-10T00:56:07;0.60;;;0.60;;
18224;SDS011;9237;48.590;8.854;2023-06-10T00:58:34;0.60;;;0.60;;
18224;SDS011;9237;48.590;8.854;2023-06-10T01:01:02;0.60;;;0.60;;
18224;SDS011;9237;48.590;8.854;2023-06-10T01:03:31;0.70;;;0.70;;
18224;SDS011;9237;48.590;8.854;2023-06-10T01:06:03;0.70;;;0.70;;
18224;SDS011;9237;48.590;8.854;2023-06-10T01:08:35;0.67;;;0.67;;
18224;SDS011;9237;48.590;8.854;2023-06-10T01:11:07;0.60;;;0.60;;
18224;SDS011;9237;48.590;8.854;2023-06-10T01:13:40;0.60;;;0.60;;
18224;SDS011;9237;48.590;8.854;2023-06-10T01:16:08;0.70;;;0.70;;
18224;SDS011;9237;48.590;8.854;2023-06-10T01:18:37;0.70;;;0.70;;
18224;SDS011;9237;48.590;8.854;2023-06-10T01:21:04;0.60;;;0.60;;
18224;SDS011;9237;48.590;8.854;2023-06-10T01:23:34;0.60;;;0.60;;
18224;SDS011;9237;48.590;8.854;2023-06-10T01:26:02;0.63;;;0.63;;
18224;SDS011;9237;48.590;8.854;2023-06-10T01:28:33;0.60;;;0.60;;
18224;SDS011;9237;48.590;8.854;2023-06-10T01:31:07;0.63;;;0.63;;
18224;SDS011;9237;48.590;8.854;2023-06-10T01:33:41;0.60;;;0.60;;
18224;SDS011;9237;48.590;8.854;2023-06-10T01:36:09;0.60;;;0.60;;
18224;SDS011;9237;48.590;8.854;2023-06-10T01:38:39;0.60;;;0.60;;
18224;SDS011;9237;48.590;8.854;2023-06-10T01:41:09;0.60;;;0.60;;
18224;SDS011;9237;48.590;8.854;2023-06-10T01:43:38;0.70;;;0.70;;
18224;SDS011;9237;48.590;8.854;2023-06-10T01:46:05;0.60;;;0.60;;
18224;SDS011;9237;48.590;8.854;2023-06-10T01:48:32;0.60;;;0.60;;
18224;SDS011;9237;48.590;8.854;2023-06-10T01:50:59;0.60;;;0.60;;
18224;SDS011;9237;48.590;8.854;2023-06-10T01:53:26;0.60;;;0.60;;
18224;SDS011;9237;48.590;8.854;2023-06-10T01:55:54;0.60;;;0.60;;
18224;SDS011;9237;48.590;8.854;2023-06-10T01:58:21;0.60;;;0.60;;
18224;SDS011;9237;48.590;8.854;2023-06-10T02:00:48;0.60;;;0.60;;
18224;SDS011;9237;48.590;8.854;2023-06-10T02:03:15;0.70;;;0.70;;
18224;SDS011;9237;48.590;8.854;2023-06-10T02:05:42;0.70;;;0.70;;
18224;SDS011;9237;48.590;8.854;2023-06-10T02:08:09;0.70;;;0.70;;
18224;SDS011;9237;48.590;8.854;2023-06-10T02:10:36;0.70;;;0.70;;
18224;SDS011;9237;48.590;8.854;2023-06-10T02:13:04;0.70;;;0.70;;
18224;SDS011;9237;48.590;8.854;2023-06-10T02:15:30;0.70;;;0.70;;
18224;SDS011;9237;48.590;8.854;2023-06-10T02:17:57;0.70;;;0.70;;
18224;SDS011;9237;48.590;8.854;2023-06-10T02:20:25;0.70;;;0.70;;
18224;SDS011;9237;48.590;8.854;2023-06-10T02:22:52;0.70;;;0.70;;
18224;SDS011;9237;48.590;8.854;2023-06-10T02:25:19;0.70;;;0.70;;
18224;SDS011;9237;48.590;8.854;2023-06-10T02:27:46;0.70;;;0.70;;
18224;SDS011;9237;48.590;8.854;2023-06-10T02:30:14;0.80;;;0.80;;
18224;SDS011;9237;48.590;8.854;2023-06-10T02:32:41;0.70;;;0.70;;
18224;SDS011;9237;48.590;8.854;2023-06-10T02:35:09;0.77;;;0.77;;
18224;SDS011;9237;48.590;8.854;2023-06-10T02:37:37;0.80;;;0.80;;
18224;SDS011;9237;48.590;8.854;2023-06-10T02:40:04;0.70;;;0.70;;
18224;SDS011;9237;48.590;8.854;2023-06-10T02:42:32;0.70;;;0.70;;
18224;SDS011;9237;48.590;8.854;2023-06-10T02:44:59;0.70;;;0.70;;
18224;SDS011;9237;48.590;8.854;2023-06-10T02:47:27;0.70;;;0.70;;
18224;SDS011;9237;48.590;8.854;2023-06-10T02:49:54;0.70;;;0.70;;
18224;SDS011;9237;48.590;8.854;2023-06-10T02:52:21;0.70;;;0.70;;
18224;SDS011;9237;48.590;8.854;2023-06-10T02:54:48;0.70;;;0.70;;
18224;SDS011;9237;48.590;8.854;2023-06-10T02:57:14;0.70;;;0.70;;
18224;SDS011;9237;48.590;8.854;2023-06-10T02:59:41;0.70;;;0.70;;
18224;SDS011;9237;48.590;8.854;2023-06-10T03:02:08;0.70;;;0.70;;
18224;SDS011;9237;48.590;8.854;2023-06-10T03:04:37;0.70;;;0.70;;
18224;SDS011;9237;48.590;8.854;2023-06-10T03:07:04;0.70;;;0.70;;
18224;SDS011;9237;48.590;8.854;2023-06-10T03:09:32;0.70;;;0.70;;
18224;SDS011;9237;48.590;8.854;2023-06-10T03:11:59;0.60;;;0.60;;
18224;SDS011;9237;48.590;8.854;2023-06-10T03:14:26;0.70;;;0.70;;
18224;SDS011;9237;48.590;8.854;2023-06-10T03:16:53;0.70;;;0.70;;
18224;SDS011;9237;48.590;8.854;2023-06-10T03:19:20;0.70;;;0.70;;
18224;SDS011;9237;48.590;8.854;2023-06-10T03:22:07;0.70;;;0.70;;
18224;SDS011;9237;48.590;8.854;2023-06-10T03:24:35;0.70;;;0.70;;
18224;SDS011;9237;48.590;8.854;2023-06-10T03:27:05;0.70;;;0.70;;
18224;SDS011;9237;48.590;8.854;2023-06-10T03:29:32;0.70;;;0.70;;
18224;SDS011;9237;48.590;8.854;2023-06-10T03:31:59;0.70;;;0.70;;
18224;SDS011;9237;48.590;8.854;2023-06-10T03:34:26;0.70;;;0.70;;
18224;SDS011;9237;48.590;8.854;2023-06-10T03:36:56;0.70;;;0.70;;
18224;SDS011;9237;48.590;8.854;2023-06-10T03:39:23;0.60;;;0.60;;
18224;SDS011;9237;48.590;8.854;2023-06-10T03:41:50;0.70;;;0.70;;
18224;SDS011;9237;48.590;8.854;2023-06-10T03:44:17;0.60;;;0.60;;
18224;SDS011;9237;48.590;8.854;2023-06-10T03:46:43;0.70;;;0.70;;
18224;SDS011;9237;48.590;8.854;2023-06-10T03:49:10;0.70;;;0.70;;
18224;SDS011;9237;48.590;8.854;2023-06-10T03:51:37;0.70;;;0.70;;
18224;SDS011;9237;48.590;8.854;2023-06-10T03:54:05;0.70;;;0.70;;
18224;SDS011;9237;48.590;8.854;2023-06-10T03:56:32;0.70;;;0.70;;
18224;SDS011;9237;48.590;8.854;2023-06-10T03:58:59;0.60;;;0.60;;
18224;SDS011;9237;48.590;8.854;2023-06-10T04:01:26;0.67;;;0.67;;
18224;SDS011;9237;48.590;8.854;2023-06-10T04:03:53;0.70;;;0.70;;
18224;SDS011;9237;48.590;8.854;2023-06-10T04:06:20;0.60;;;0.60;;
18224;SDS011;9237;48.590;8.854;2023-06-10T04:08:50;0.60;;;0.60;;
18224;SDS011;9237;48.590;8.854;2023-06-10T04:11:18;0.60;;;0.60;;
18224;SDS011;9237;48.590;8.854;2023-06-10T04:13:45;0.67;;;0.67;;
18224;SDS011;9237;48.590;8.854;2023-06-10T04:16:11;0.60;;;0.60;;
18224;SDS011;9237;48.590;8.854;2023-06-10T04:18:38;0.60;;;0.60;;
18224;SDS011;9237;48.590;8.854;2023-06-10T04:21:06;0.70;;;0.70;;
18224;SDS011;9237;48.590;8.854;2023-06-10T04:23:34;0.60;;;0.60;;
18224;SDS011;9237;48.590;8.854;2023-06-10T04:26:01;0.60;;;0.60;;
18224;SDS011;9237;48.590;8.854;2023-06-10T04:28:29;0.60;;;0.60;;
18224;SDS011;9237;48.590;8.854;2023-06-10T04:30:56;0.70;;;0.70;;
18224;SDS011;9237;48.590;8.854;2023-06-10T04:33:23;0.60;;;0.60;;
18224;SDS011;9237;48.590;8.854;2023-06-10T04:35:50;0.60;;;0.60;;
18224;SDS011;9237;48.590;8.854;2023-06-10T04:38:17;0.70;;;0.70;;
18224;SDS011;9237;48.590;8.854;2023-06-10T04:40:44;0.60;;;0.60;;
18224;SDS011;9237;48.590;8.854;2023-06-10T04:43:11;0.70;;;0.70;;
18224;SDS011;9237;48.590;8.854;2023-06-10T04:45:39;0.60;;;0.60;;
18224;SDS011;9237;48.590;8.854;2023-06-10T04:48:09;0.60;;;0.60;;
18224;SDS011;9237;48.590;8.854;2023-06-10T04:50:36;0.60;;;0.60;;
18224;SDS011;9237;48.590;8.854;2023-06-10T04:53:03;0.60;;;0.60;;
18224;SDS011;9237;48.590;8.854;2023-06-10T04:55:30;0.60;;;0.60;;
18224;SDS011;9237;48.590;8.854;2023-06-10T04:57:58;0.60;;;0.60;;
18224;SDS011;9237;48.590;8.854;2023-06-10T05:00:25;0.60;;;0.60;;
18224;SDS011;9237;48.590;8.854;2023-06-10T05:02:53;0.60;;;0.60;;
18224;SDS011;9237;48.590;8.854;2023-06-10T05:05:21;0.70;;;0.70;;
18224;SDS011;9237;48.590;8.854;2023-06-10T05:07:47;0.60;;;0.60;;
18224;SDS011;9237;48.590;8.854;2023-06-10T05:10:14;0.60;;;0.60;;
18224;SDS011;9237;48.590;8.854;2023-06-10T05:12:41;0.60;;;0.60;;
18224;SDS011;9237;48.590;8.854;2023-06-10T05:15:08;0.60;;;0.60;;
18224;SDS011;9237;48.590;8.854;2023-06-10T05:17:36;0.60;;;0.60;;
18224;SDS011;9237;48.590;8.854;2023-06-10T05:20:05;0.60;;;0.60;;
18224;SDS011;9237;48.590;8.854;2023-06-10T05:22:33;0.60;;;0.60;;
18224;SDS011;9237;48.590;8.854;2023-06-10T05:25:00;0.60;;;0.60;;
18224;SDS011;9237;48.590;8.854;2023-06-10T05:27:28;0.60;;;0.60;;
18224;SDS011;9237;48.590;8.854;2023-06-10T05:29:54;0.60;;;0.60;;
18224;SDS011;9237;48.590;8.854;2023-06-10T05:32:21;0.60;;;0.60;;
18224;SDS011;9237;48.590;8.854;2023-06-10T05:34:48;0.50;;;0.50;;
18224;SDS011;9237;48.590;8.854;2023-06-10T05:37:16;0.50;;;0.50;;
18224;SDS011;9237;48.590;8.854;2023-06-10T05:39:43;0.60;;;0.60;;
18224;SDS011;9237;48.590;8.854;2023-06-10T05:42:10;0.60;;;0.60;;
18224;SDS011;9237;48.590;8.854;2023-06-10T05:44:36;0.60;;;0.60;;
18224;SDS011;9237;48.590;8.854;2023-06-10T05:47:03;0.60;;;0.60;;
18224;SDS011;9237;48.590;8.854;2023-06-10T05:49:31;0.53;;;0.53;;
18224;SDS011;9237;48.590;8.854;2023-06-10T05:51:57;0.60;;;0.60;;
18224;SDS011;9237;48.590;8.854;2023-06-10T05:54:26;0.60;;;0.60;;
18224;SDS011;9237;48.590;8.854;2023-06-10T05:56:53;0.60;;;0.60;;
18224;SDS011;9237;48.590;8.854;2023-06-10T05:59:19;0.60;;;0.60;;
18224;SDS011;9237;48.590;8.854;2023-06-10T06:01:47;0.50;;;0.50;;
18224;SDS011;9237;48.590;8.854;2023-06-10T06:04:15;0.50;;;0.50;;
18224;SDS011;9237;48.590;8.854;2023-06-10T06:06:41;0.50;;;0.50;;
18224;SDS011;9237;48.590;8.854;2023-06-10T06:09:08;0.50;;;0.50;;
18224;SDS011;9237;48.590;8.854;2023-06-10T06:11:37;0.50;;;0.50;;
18224;SDS011;9237;48.590;8.854;2023-06-10T06:14:03;0.50;;;0.50;;
18224;SDS011;9237;48.590;8.854;2023-06-10T06:16:30;0.50;;;0.50;;
18224;SDS011;9237;48.590;8.854;2023-06-10T06:18:57;0.50;;;0.50;;
18224;SDS011;9237;48.590;8.854;2023-06-10T06:21:24;0.40;;;0.40;;
18224;SDS011;9237;48.590;8.854;2023-06-10T06:23:51;0.50;;;0.50;;
18224;SDS011;9237;48.590;8.854;2023-06-10T06:26:18;0.50;;;0.50;;
18224;SDS011;9237;48.590;8.854;2023-06-10T06:28:47;0.40;;;0.40;;
18224;SDS011;9237;48.590;8.854;2023-06-10T06:31:13;0.45;;;0.45;;
18224;SDS011;9237;48.590;8.854;2023-06-10T06:33:40;0.40;;;0.40;;
18224;SDS011;9237;48.590;8.854;2023-06-10T06:36:07;0.40;;;0.40;;
18224;SDS011;9237;48.590;8.854;2023-06-10T06:38:34;0.40;;;0.40;;
18224;SDS011;9237;48.590;8.854;2023-06-10T06:41:00;0.40;;;0.40;;
18224;SDS011;9237;48.590;8.854;2023-06-10T06:43:30;0.40;;;0.40;;
18224;SDS011;9237;48.590;8.854;2023-06-10T06:45:59;0.40;;;0.40;;
18224;SDS011;9237;48.590;8.854;2023-06-10T06:48:26;0.40;;;0.40;;
18224;SDS011;9237;48.590;8.854;2023-06-10T06:50:52;0.40;;;0.40;;
18224;SDS011;9237;48.590;8.854;2023-06-10T06:53:21;0.40;;;0.40;;
18224;SDS011;9237;48.590;8.854;2023-06-10T06:55:48;0.40;;;0.40;;
18224;SDS011;9237;48.590;8.854;2023-06-10T06:58:14;0.40;;;0.40;;
18224;SDS011;9237;48.590;8.854;2023-06-10T07:00:41;0.38;;;0.38;;
18224;SDS011;9237;48.590;8.854;2023-06-10T07:03:10;0.30;;;0.30;;
18224;SDS011;9237;48.590;8.854;2023-06-10T07:05:37;0.30;;;0.30;;
18224;SDS011;9237;48.590;8.854;2023-06-10T07:08:04;0.30;;;0.30;;
18224;SDS011;9237;48.590;8.854;2023-06-10T07:10:31;0.30;;;0.30;;
18224;SDS011;9237;48.590;8.854;2023-06-10T07:12:58;0.40;;;0.40;;
18224;SDS011;9237;48.590;8.854;2023-06-10T07:15:25;0.30;;;0.30;;
18224;SDS011;9237;48.590;8.854;2023-06-10T07:17:51;0.30;;;0.30;;
18224;SDS011;9237;48.590;8.854;2023-06-10T07:20:20;0.30;;;0.30;;
18224;SDS011;9237;48.590;8.854;2023-06-10T07:22:46;0.30;;;0.30;;
18224;SDS011;9237;48.590;8.854;2023-06-10T07:25:13;0.40;;;0.40;;
18224;SDS011;9237;48.590;8.854;2023-06-10T07:27:40;0.30;;;0.30;;
18224;SDS011;9237;48.590;8.854;2023-06-10T07:30:07;0.40;;;0.40;;
18224;SDS011;9237;48.590;8.854;2023-06-10T07:32:36;0.30;;;0.30;;
18224;SDS011;9237;48.590;8.854;2023-06-10T07:35:03;0.30;;;0.30;;
18224;SDS011;9237;48.590;8.854;2023-06-10T07:37:33;0.30;;;0.30;;
18224;SDS011;9237;48.590;8.854;2023-06-10T07:40:00;0.35;;;0.35;;
18224;SDS011;9237;48.590;8.854;2023-06-10T07:42:26;0.30;;;0.30;;
18224;SDS011;9237;48.590;8.854;2023-06-10T07:44:53;0.40;;;0.40;;
18224;SDS011;9237;48.590;8.854;2023-06-10T07:47:20;0.30;;;0.30;;
18224;SDS011;9237;48.590;8.854;2023-06-10T07:49:47;0.30;;;0.30;;
18224;SDS011;9237;48.590;8.854;2023-06-10T07:52:14;0.30;;;0.30;;
18224;SDS011;9237;48.590;8.854;2023-06-10T07:54:42;0.38;;;0.38;;
18224;SDS011;9237;48.590;8.854;2023-06-10T07:57:09;0.30;;;0.30;;
18224;SDS011;9237;48.590;8.854;2023-06-10T07:59:35;0.30;;;0.30;;
18224;SDS011;9237;48.590;8.854;2023-06-10T08:02:02;0.38;;;0.38;;
18224;SDS011;9237;48.590;8.854;2023-06-10T08:04:30;0.40;;;0.40;;
18224;SDS011;9237;48.590;8.854;2023-06-10T08:07:00;0.40;;;0.40;;
18224;SDS011;9237;48.590;8.854;2023-06-10T08:09:27;0.40;;;0.40;;
18224;SDS011;9237;48.590;8.854;2023-06-10T08:11:55;0.40;;;0.40;;
18224;SDS011;9237;48.590;8.854;2023-06-10T08:14:22;0.30;;;0.30;;
18224;SDS011;9237;48.590;8.854;2023-06-10T08:16:49;0.40;;;0.40;;
18224;SDS011;9237;48.590;8.854;2023-06-10T08:19:16;0.30;;;0.30;;
18224;SDS011;9237;48.590;8.854;2023-06-10T08:21:42;0.30;;;0.30;;
18224;SDS011;9237;48.590;8.854;2023-06-10T08:24:09;0.30;;;0.30;;
18224;SDS011;9237;48.590;8.854;2023-06-10T08:26:36;0.40;;;0.40;;
18224;SDS011;9237;48.590;8.854;2023-06-10T08:29:06;0.40;;;0.40;;
18224;SDS011;9237;48.590;8.854;2023-06-10T08:31:33;0.30;;;0.30;;
18224;SDS011;9237;48.590;8.854;2023-06-10T08:34:00;0.30;;;0.30;;
18224;SDS011;9237;48.590;8.854;2023-06-10T08:36:27;0.30;;;0.30;;
18224;SDS011;9237;48.590;8.854;2023-06-10T08:38:54;0.30;;;0.30;;
18224;SDS011;9237;48.590;8.854;2023-06-10T08:41:21;0.30;;;0.30;;
18224;SDS011;9237;48.590;8.854;2023-06-10T08:43:54;0.30;;;0.30;;
18224;SDS011;9237;48.590;8.854;2023-06-10T08:46:30;0.30;;;0.30;;
18224;SDS011;9237;48.590;8.854;2023-06-10T08:48:58;0.30;;;0.30;;
18224;SDS011;9237;48.590;8.854;2023-06-10T08:51:28;0.30;;;0.30;;
18224;SDS011;9237;48.590;8.854;2023-06-10T08:53:59;0.20;;;0.20;;
18224;SDS011;9237;48.590;8.854;2023-06-10T08:56:28;0.25;;;0.25;;
18224;SDS011;9237;48.590;8.854;2023-06-10T08:58:57;0.20;;;0.20;;
18224;SDS011;9237;48.590;8.854;2023-06-10T09:01:25;0.30;;;0.30;;
18224;SDS011;9237;48.590;8.854;2023-06-10T09:03:54;0.22;;;0.22;;
18224;SDS011;9237;48.590;8.854;2023-06-10T09:06:21;0.30;;;0.30;;
18224;SDS011;9237;48.590;8.854;2023-06-10T09:08:48;0.20;;;0.20;;
18224;SDS011;9237;48.590;8.854;2023-06-10T09:11:16;0.30;;;0.30;;
18224;SDS011;9237;48.590;8.854;2023-06-10T09:13:42;0.30;;;0.30;;
18224;SDS011;9237;48.590;8.854;2023-06-10T09:16:09;0.30;;;0.30;;
18224;SDS011;9237;48.590;8.854;2023-06-10T09:18:37;0.20;;;0.20;;
18224;SDS011;9237;48.590;8.854;2023-06-10T09:21:06;0.20;;;0.20;;
18224;SDS011;9237;48.590;8.854;2023-06-10T09:23:32;0.20;;;0.20;;
18224;SDS011;9237;48.590;8.854;2023-06-10T09:26:00;0.20;;;0.20;;
18224;SDS011;9237;48.590;8.854;2023-06-10T09:28:28;0.30;;;0.30;;
18224;SDS011;9237;48.590;8.854;2023-06-10T09:31:01;0.30;;;0.30;;
18224;SDS011;9237;48.590;8.854;2023-06-10T09:33:29;0.30;;;0.30;;
18224;SDS011;9237;48.590;8.854;2023-06-10T09:35:55;0.20;;;0.20;;
18224;SDS011;9237;48.590;8.854;2023-06-10T09:38:29;0.30;;;0.30;;
18224;SDS011;9237;48.590;8.854;2023-06-10T09:40:56;0.28;;;0.28;;
18224;SDS011;9237;48.590;8.854;2023-06-10T09:43:23;0.20;;;0.20;;
18224;SDS011;9237;48.590;8.854;2023-06-10T09:46:04;0.30;;;0.30;;
18224;SDS011;9237;48.590;8.854;2023-06-10T09:48:31;0.20;;;0.20;;
18224;SDS011;9237;48.590;8.854;2023-06-10T09:51:01;0.20;;;0.20;;
18224;SDS011;9237;48.590;8.854;2023-06-10T09:53:29;0.30;;;0.30;;
18224;SDS011;9237;48.590;8.854;2023-06-10T09:55:59;0.30;;;0.30;;
18224;SDS011;9237;48.590;8.854;2023-06-10T09:58:35;0.30;;;0.30;;
18224;SDS011;9237;48.590;8.854;2023-06-10T10:01:06;0.20;;;0.20;;
18224;SDS011;9237;48.590;8.854;2023-06-10T10:03:37;0.20;;;0.20;;
18224;SDS011;9237;48.590;8.854;2023-06-10T10:06:10;0.20;;;0.20;;
18224;SDS011;9237;48.590;8.854;2023-06-10T10:08:38;0.20;;;0.20;;
18224;SDS011;9237;48.590;8.854;2023-06-10T10:11:05;0.30;;;0.30;;
18224;SDS011;9237;48.590;8.854;2023-06-10T10:13:33;0.30;;;0.30;;
18224;SDS011;9237;48.590;8.854;2023-06-10T10:16:01;0.30;;;0.30;;
18224;SDS011;9237;48.590;8.854;2023-06-10T10:18:33;0.22;;;0.22;;
18224;SDS011;9237;48.590;8.854;2023-06-10T10:21:05;0.30;;;0.30;;
18224;SDS011;9237;48.590;8.854;2023-06-10T10:23:39;0.30;;;0.30;;
18224;SDS011;9237;48.590;8.854;2023-06-10T10:26:11;0.30;;;0.30;;
18224;SDS011;9237;48.590;8.854;2023-06-10T10:28:41;0.20;;;0.20;;
18224;SDS011;9237;48.590;8.854;2023-06-10T10:31:11;0.20;;;0.20;;
18224;SDS011;9237;48.590;8.854;2023-06-10T10:33:40;0.20;;;0.20;;
18224;SDS011;9237;48.590;8.854;2023-06-10T10:36:14;0.28;;;0.28;;
18224;SDS011;9237;48.590;8.854;2023-06-10T10:38:43;0.22;;;0.22;;
18224;SDS011;9237;48.590;8.854;2023-06-10T10:41:13;0.22;;;0.22;;
18224;SDS011;9237;48.590;8.854;2023-06-10T10:43:40;0.22;;;0.22;;
18224;SDS011;9237;48.590;8.854;2023-06-10T10:46:11;0.20;;;0.20;;
18224;SDS011;9237;48.590;8.854;2023-06-10T10:48:39;0.20;;;0.20;;
18224;SDS011;9237;48.590;8.854;2023-06-10T10:51:07;0.25;;;0.25;;
18224;SDS011;9237;48.590;8.854;2023-06-10T10:53:34;0.20;;;0.20;;
18224;SDS011;9237;48.590;8.854;2023-06-10T10:56:05;0.20;;;0.20;;
18224;SDS011;9237;48.590;8.854;2023-06-10T10:58:33;0.20;;;0.20;;
18224;SDS011;9237;48.590;8.854;2023-06-10T11:01:09;0.20;;;0.20;;
18224;SDS011;9237;48.590;8.854;2023-06-10T11:03:42;0.30;;;0.30;;
18224;SDS011;9237;48.590;8.854;2023-06-10T11:06:11;0.30;;;0.30;;
18224;SDS011;9237;48.590;8.854;2023-06-10T11:08:45;0.32;;;0.32;;
18224;SDS011;9237;48.590;8.854;2023-06-10T11:11:24;0.30;;;0.30;;
18224;SDS011;9237;48.590;8.854;2023-06-10T11:13:59;0.30;;;0.30;;
18224;SDS011;9237;48.590;8.854;2023-06-10T11:16:38;0.22;;;0.22;;
18224;SDS011;9237;48.590;8.854;2023-06-10T11:19:06;0.25;;;0.25;;
18224;SDS011;9237;48.590;8.854;2023-06-10T11:21:37;0.20;;;0.20;;
18224;SDS011;9237;48.590;8.854;2023-06-10T11:24:26;0.20;;;0.20;;
18224;SDS011;9237;48.590;8.854;2023-06-10T11:26:56;0.20;;;0.20;;
18224;SDS011;9237;48.590;8.854;2023-06-10T11:29:54;0.30;;;0.30;;
18224;SDS011;9237;48.590;8.854;2023-06-10T11:32:22;0.30;;;0.30;;
18224;SDS011;9237;48.590;8.854;2023-06-10T11:34:51;0.30;;;0.30;;
18224;SDS011;9237;48.590;8.854;2023-06-10T11:37:19;0.30;;;0.30;;
18224;SDS011;9237;48.590;8.854;2023-06-10T11:39:47;0.30;;;0.30;;
18224;SDS011;9237;48.590;8.854;2023-06-10T11:42:18;0.30;;;0.30;;
18224;SDS011;9237;48.590;8.854;2023-06-10T11:44:48;0.30;;;0.30;;
18224;SDS011;9237;48.590;8.854;2023-06-10T11:47:16;0.30;;;0.30;;
18224;SDS011;9237;48.590;8.854;2023-06-10T11:49:43;0.20;;;0.20;;
18224;SDS011;9237;48.590;8.854;2023-06-10T11:52:09;0.30;;;0.30;;
18224;SDS011;9237;48.590;8.854;2023-06-10T11:54:37;0.30;;;0.30;;
18224;SDS011;9237;48.590;8.854;2023-06-10T11:57:04;0.28;;;0.28;;
18224;SDS011;9237;48.590;8.854;2023-06-10T11:59:34;0.30;;;0.30;;
18224;SDS011;9237;48.590;8.854;2023-06-10T12:02:01;0.30;;;0.30;;
18224;SDS011;9237;48.590;8.854;2023-06-10T12:04:28;0.30;;;0.30;;
18224;SDS011;9237;48.590;8.854;2023-06-10T12:06:55;0.30;;;0.30;;
18224;SDS011;9237;48.590;8.854;2023-06-10T12:09:22;0.30;;;0.30;;
18224;SDS011;9237;48.590;8.854;2023-06-10T12:11:50;0.30;;;0.30;;
18224;SDS011;9237;48.590;8.854;2023-06-10T12:17:20;0.30;;;0.30;;
18224;SDS011;9237;48.590;8.854;2023-06-10T12:19:48;0.25;;;0.25;;
18224;SDS011;9237;48.590;8.854;2023-06-10T12:22:15;0.20;;;0.20;;
18224;SDS011;9237;48.590;8.854;2023-06-10T12:24:44;0.20;;;0.20;;
18224;SDS011;9237;48.590;8.854;2023-06-10T12:27:11;0.20;;;0.20;;
18224;SDS011;9237;48.590;8.854;2023-06-10T12:29:38;0.30;;;0.30;;
18224;SDS011;9237;48.590;8.854;2023-06-10T12:32:07;0.30;;;0.30;;
18224;SDS011;9237;48.590;8.854;2023-06-10T12:34:35;0.30;;;0.30;;
18224;SDS011;9237;48.590;8.854;2023-06-10T12:37:04;0.30;;;0.30;;
18224;SDS011;9237;48.590;8.854;2023-06-10T12:39:32;0.32;;;0.32;;
18224;SDS011;9237;48.590;8.854;2023-06-10T12:41:59;0.30;;;0.30;;
18224;SDS011;9237;48.590;8.854;2023-06-10T12:44:31;0.20;;;0.20;;
18224;SDS011;9237;48.590;8.854;2023-06-10T12:46:59;0.30;;;0.30;;
18224;SDS011;9237;48.590;8.854;2023-06-10T12:49:27;0.30;;;0.30;;
18224;SDS011;9237;48.590;8.854;2023-06-10T12:51:54;0.30;;;0.30;;
18224;SDS011;9237;48.590;8.854;2023-06-10T12:54:21;0.30;;;0.30;;
18224;SDS011;9237;48.590;8.854;2023-06-10T12:56:48;0.22;;;0.22;;
18224;SDS011;9237;48.590;8.854;2023-06-10T12:59:15;0.20;;;0.20;;
18224;SDS011;9237;48.590;8.854;2023-06-10T13:01:42;0.30;;;0.30;;
18224;SDS011;9237;48.590;8.854;2023-06-10T13:04:09;0.30;;;0.30;;
18224;SDS011;9237;48.590;8.854;2023-06-10T13:06:38;0.20;;;0.20;;
18224;SDS011;9237;48.590;8.854;2023-06-10T13:09:05;0.20;;;0.20;;
18224;SDS011;9237;48.590;8.854;2023-06-10T13:11:33;0.20;;;0.20;;
18224;SDS011;9237;48.590;8.854;2023-06-10T13:14:01;0.30;;;0.30;;
18224;SDS011;9237;48.590;8.854;2023-06-10T13:16:29;0.20;;;0.20;;
18224;SDS011;9237;48.590;8.854;2023-06-10T13:18:56;0.30;;;0.30;;
18224;SDS011;9237;48.590;8.854;2023-06-10T13:21:23;0.30;;;0.30;;
18224;SDS011;9237;48.590;8.854;2023-06-10T13:23:52;0.32;;;0.32;;
18224;SDS011;9237;48.590;8.854;2023-06-10T13:26:18;0.40;;;0.40;;
18224;SDS011;9237;48.590;8.854;2023-06-10T13:28:45;0.30;;;0.30;;
18224;SDS011;9237;48.590;8.854;2023-06-10T13:31:12;0.30;;;0.30;;
18224;SDS011;9237;48.590;8.854;2023-06-10T13:33:39;0.30;;;0.30;;
18224;SDS011;9237;48.590;8.854;2023-06-10T13:36:08;0.30;;;0.30;;
18224;SDS011;9237;48.590;8.854;2023-06-10T13:38:35;0.30;;;0.30;;
18224;SDS011;9237;48.590;8.854;2023-06-10T13:41:03;0.20;;;0.20;;
18224;SDS011;9237;48.590;8.854;2023-06-10T13:43:30;0.30;;;0.30;;
18224;SDS011;9237;48.590;8.854;2023-06-10T13:45:57;0.20;;;0.20;;
18224;SDS011;9237;48.590;8.854;2023-06-10T13:48:25;0.30;;;0.30;;
18224;SDS011;9237;48.590;8.854;2023-06-10T13:50:52;0.22;;;0.22;;
18224;SDS011;9237;48.590;8.854;2023-06-10T13:53:18;0.30;;;0.30;;
18224;SDS011;9237;48.590;8.854;2023-06-10T13:55:45;0.20;;;0.20;;
18224;SDS011;9237;48.590;8.854;2023-06-10T13:58:13;0.30;;;0.30;;
18224;SDS011;9237;48.590;8.854;2023-06-10T14:00:40;0.30;;;0.30;;
18224;SDS011;9237;48.590;8.854;2023-06-10T14:03:07;0.20;;;0.20;;
18224;SDS011;9237;48.590;8.854;2023-06-10T14:05:34;0.20;;;0.20;;
18224;SDS011;9237;48.590;8.854;2023-06-10T14:08:00;0.25;;;0.25;;
18224;SDS011;9237;48.590;8.854;2023-06-10T14:10:28;0.30;;;0.30;;
18224;SDS011;9237;48.590;8.854;2023-06-10T14:12:54;0.20;;;0.20;;
18224;SDS011;9237;48.590;8.854;2023-06-10T14:15:23;0.22;;;0.22;;
18224;SDS011;9237;48.590;8.854;2023-06-10T14:17:50;0.30;;;0.30;;
18224;SDS011;9237;48.590;8.854;2023-06-10T14:20:17;0.30;;;0.30;;
18224;SDS011;9237;48.590;8.854;2023-06-10T14:22:44;0.30;;;0.30;;
18224;SDS011;9237;48.590;8.854;2023-06-10T14:25:10;0.30;;;0.30;;
18224;SDS011;9237;48.590;8.854;2023-06-10T14:27:37;0.20;;;0.20;;
18224;SDS011;9237;48.590;8.854;2023-06-10T14:30:04;0.20;;;0.20;;
18224;SDS011;9237;48.590;8.854;2023-06-10T14:32:33;0.25;;;0.25;;
18224;SDS011;9237;48.590;8.854;2023-06-10T14:35:00;0.20;;;0.20;;
18224;SDS011;9237;48.590;8.854;2023-06-10T14:37:29;0.30;;;0.30;;
18224;SDS011;9237;48.590;8.854;2023-06-10T14:39:56;0.20;;;0.20;;
18224;SDS011;9237;48.590;8.854;2023-06-10T14:42:22;0.30;;;0.30;;
18224;SDS011;9237;48.590;8.854;2023-06-10T14:44:49;0.30;;;0.30;;
18224;SDS011;9237;48.590;8.854;2023-06-10T14:47:16;0.20;;;0.20;;
18224;SDS011;9237;48.590;8.854;2023-06-10T14:49:44;0.30;;;0.30;;
18224;SDS011;9237;48.590;8.854;2023-06-10T14:52:11;0.30;;;0.30;;
18224;SDS011;9237;48.590;8.854;2023-06-10T14:54:38;0.30;;;0.30;;
18224;SDS011;9237;48.590;8.854;2023-06-10T14:57:05;0.30;;;0.30;;
18224;SDS011;9237;48.590;8.854;2023-06-10T14:59:32;0.30;;;0.30;;
18224;SDS011;9237;48.590;8.854;2023-06-10T15:01:59;0.40;;;0.40;;
18224;SDS011;9237;48.590;8.854;2023-06-10T15:04:26;0.40;;;0.40;;
18224;SDS011;9237;48.590;8.854;2023-06-10T15:06:55;0.40;;;0.40;;
18224;SDS011;9237;48.590;8.854;2023-06-10T15:09:21;0.40;;;0.40;;